Time;durP1;ratioP1;P1;durP2;ratioP2;P2;SDS_P1;SDS_P2;PMS_P1;PMS_P2;Temp;Humidity;BMP_temperature;BMP_pressure;BME280_temperature;BME280_humidity;BME280_pressure;Samples;Min_cycle;Max_cycle;Signal;HPM_P1;HPM_P2
2023/01/28 00:00:45;;;;;;;;;;;;;;;;;;5115047;28;19908;-76
2023/01/28 00:03:11;;;;;;;;;;;;;;;;;;5114459;28;19907;-75
2023/01/28 00:05:37;;;;;;;;;;;;;;;;;;5114886;28;19914;-75
2023/01/28 00:08:03;;;;;;;;;;;;;;;;;;5114702;28;20255;-77
2023/01/28 00:10:29;;;;;;;;;;;;;;;;;;5114348;28;19973;-76
2023/01/28 00:12:55;;;;;;;;;;;;;;;;;;5114711;28;19908;-76
2023/01/28 00:15:21;;;;;;;;;;;;;;;;;;5115056;28;19914;-74
2023/01/28 00:17:47;;;;;;;;;;;;;;;;;;5112940;28;19908;-75
2023/01/28 00:20:13;;;;;;;;;;;;;;;;;;5113294;28;19980;-75
2023/01/28 00:22:39;;;;;;;;;;;;;;;;;;5114565;28;19998;-75
2023/01/28 00:25:05;;;;;;;;;;;;;;;;;;5114226;28;19908;-75
2023/01/28 00:27:31;;;;;;;;;;;;;;;;;;5114582;28;19918;-75
2023/01/28 00:29:57;;;;;;;;;;;;;;;;;;5112847;28;19940;-75
2023/01/28 00:32:23;;;;;;;;;;;;;;;;;;5113349;28;19930;-76
2023/01/28 00:34:49;;;;;;;;;;;;;;;;;;5113207;28;19908;-76
2023/01/28 00:37:15;;;;;;;;;;;;;;;;;;5113991;28;19922;-76
2023/01/28 00:39:41;;;;;;;;;;;;;;;;;;5114831;28;19907;-76
2023/01/28 00:42:06;;;;;;;;;;;;;;;;;;5115281;28;19960;-77
2023/01/28 00:44:32;;;;;;;;;;;;;;;;;;5114077;28;20403;-76
2023/01/28 00:46:59;;;;;;;;;;;;;;;;;;5114947;28;20373;-76
2023/01/28 00:49:25;;;;;;;;;;;;;;;;;;5113858;28;19912;-76
2023/01/28 00:51:51;;;;;;;;;;;;;;;;;;5113048;28;19908;-76
2023/01/28 00:54:17;;;;;;;;;;;;;;;;;;5114346;28;19958;-77
2023/01/28 00:56:43;;;;;;;;;;;;;;;;;;5114961;28;19998;-76
2023/01/28 00:59:09;;;;;;;;;;;;;;;;;;5113967;28;19915;-77
2023/01/28 01:01:35;;;;;;;;;;;;;;;;;;5114543;28;20007;-76
2023/01/28 01:04:01;;;;;;;;;;;;;;;;;;5114463;28;19908;-77
2023/01/28 01:06:27;;;;;;;;;;;;;;;;;;5112545;28;19912;-76
2023/01/28 01:08:53;;;;;;;;;;;;;;;;;;5114087;28;19916;-76
2023/01/28 01:11:19;;;;;;;;;;;;;;;;;;5114252;28;19915;-76
2023/01/28 01:13:45;;;;;;;;;;;;;;;;;;5112570;28;19919;-75
2023/01/28 01:16:11;;;;;;;;;;;;;;;;;;5114803;28;20364;-77
2023/01/28 01:18:40;;;;;;;;;;;;;;;;;;5113378;28;20435;-76
2023/01/28 01:21:06;;;;;;;;;;;;;;;;;;5114134;28;19915;-76
2023/01/28 01:23:32;;;;;;;;;;;;;;;;;;5114256;28;20310;-76
2023/01/28 01:25:58;;;;;;;;;;;;;;;;;;5114212;28;20286;-76
2023/01/28 01:28:24;;;;;;;;;;;;;;;;;;5113647;28;19915;-76
2023/01/28 01:30:50;;;;;;;;;;;;;;;;;;5114204;28;20011;-77
2023/01/28 01:33:16;;;;;;;;;;;;;;;;;;5113668;28;19908;-76
2023/01/28 01:35:42;;;;;;;;;;;;;;;;;;5114293;28;19918;-77
2023/01/28 01:38:08;;;;;;;;;;;;;;;;;;5113981;28;20275;-76
2023/01/28 01:40:34;;;;;;;;;;;;;;;;;;5113929;28;19908;-76
2023/01/28 01:43:00;;;;;;;;;;;;;;;;;;5112729;28;19923;-76
2023/01/28 01:45:26;;;;;;;;;;;;;;;;;;5115003;28;19907;-76
2023/01/28 01:47:52;;;;;;;;;;;;;;;;;;5117530;28;19962;-76
2023/01/28 01:50:18;;;;;;;;;;;;;;;;;;5117625;28;19992;-76
2023/01/28 01:52:44;;;;;;;;;;;;;;;;;;5117755;28;19908;-75
2023/01/28 01:55:10;;;;;;;;;;;;;;;;;;5117388;28;19914;-76
2023/01/28 01:57:36;;;;;;;;;;;;;;;;;;5117905;28;19907;-76
2023/01/28 02:00:04;;;;;;;;;;;;;;;;;;5117995;28;19912;-77
2023/01/28 02:02:30;;;;;;;;;;;;;;;;;;5117160;28;19912;-74
2023/01/28 02:04:56;;;;;;;;;;;;;;;;;;5117529;28;19915;-76
2023/01/28 02:07:22;;;;;;;;;;;;;;;;;;5117428;28;19916;-75
2023/01/28 02:09:48;;;;;;;;;;;;;;;;;;5115736;28;19907;-76
2023/01/28 02:12:14;;;;;;;;;;;;;;;;;;5118104;28;20002;-76
2023/01/28 02:14:40;;;;;;;;;;;;;;;;;;5121096;28;19907;-76
2023/01/28 02:17:06;;;;;;;;;;;;;;;;;;5118818;28;19933;-77
2023/01/28 02:19:32;;;;;;;;;;;;;;;;;;5117401;28;20018;-76
2023/01/28 02:21:58;;;;;;;;;;;;;;;;;;5117514;28;19908;-76
2023/01/28 02:24:24;;;;;;;;;;;;;;;;;;5117083;28;19907;-76
2023/01/28 02:26:50;;;;;;;;;;;;;;;;;;5116882;27;20000;-76
2023/01/28 02:29:16;;;;;;;;;;;;;;;;;;5117971;28;19920;-77
2023/01/28 02:31:42;;;;;;;;;;;;;;;;;;5116974;28;19912;-77
2023/01/28 02:34:08;;;;;;;;;;;;;;;;;;5117252;28;19953;-77
2023/01/28 02:36:33;;;;;;;;;;;;;;;;;;5117762;28;19908;-77
2023/01/28 02:38:59;;;;;;;;;;;;;;;;;;5116679;28;19947;-77
2023/01/28 02:41:25;;;;;;;;;;;;;;;;;;5116770;28;19908;-77
2023/01/28 02:43:51;;;;;;;;;;;;;;;;;;5115982;28;19964;-77
2023/01/28 02:49:02;;;;;;;;;;;;;;;;;;5116583;28;19959;-77
2023/01/28 02:51:28;;;;;;;;;;;;;;;;;;5115955;28;19911;-76
2023/01/28 02:53:54;;;;;;;;;;;;;;;;;;5115180;28;20283;-77
2023/01/28 02:56:20;;;;;;;;;;;;;;;;;;5116539;28;19933;-77
2023/01/28 02:58:46;;;;;;;;;;;;;;;;;;5117265;28;19922;-77
2023/01/28 03:01:12;;;;;;;;;;;;;;;;;;5118115;28;19912;-77
2023/01/28 03:03:37;;;;;;;;;;;;;;;;;;5117840;28;19998;-77
2023/01/28 03:06:05;;;;;;;;;;;;;;;;;;5117389;28;20352;-76
2023/01/28 03:38:47;;;;;;;;;;;;;;;;;;5115790;28;19961;-78
2023/01/28 03:41:13;;;;;;;;;;;;;;;;;;5115442;28;19911;-77
2023/01/28 03:43:40;;;;;;;;;;;;;;;;;;5115609;28;20378;-77
2023/01/28 03:46:06;;;;;;;;;;;;;;;;;;5115819;28;19912;-78
2023/01/28 03:48:32;;;;;;;;;;;;;;;;;;5114953;28;19927;-77
2023/01/28 03:50:59;;;;;;;;;;;;;;;;;;5115403;28;19914;-77
2023/01/28 03:53:25;;;;;;;;;;;;;;;;;;5115343;28;19915;-76
2023/01/28 03:55:51;;;;;;;;;;;;;;;;;;5115020;28;19908;-77
2023/01/28 03:58:17;;;;;;;;;;;;;;;;;;5114393;28;19908;-78
2023/01/28 04:00:43;;;;;;;;;;;;;;;;;;5115485;28;19908;-78
2023/01/28 04:03:15;;;;;;;;;;;;;;;;;;5113547;28;19907;-77
2023/01/28 04:05:41;;;;;;;;;;;;;;;;;;5115044;28;20302;-77
2023/01/28 04:08:07;;;;;;;;;;;;;;;;;;5114303;28;19923;-77
2023/01/28 04:10:33;;;;;;;;;;;;;;;;;;5113673;28;19907;-77
2023/01/28 04:12:59;;;;;;;;;;;;;;;;;;5114907;28;19955;-78
2023/01/28 04:15:25;;;;;;;;;;;;;;;;;;5114450;28;19915;-76
2023/01/28 04:17:51;;;;;;;;;;;;;;;;;;5113557;28;19950;-77
2023/01/28 04:20:17;;;;;;;;;;;;;;;;;;5115084;28;19908;-77
2023/01/28 04:22:43;;;;;;;;;;;;;;;;;;5114569;28;19915;-77
2023/01/28 04:25:09;;;;;;;;;;;;;;;;;;5113778;28;19912;-78
2023/01/28 04:27:35;;;;;;;;;;;;;;;;;;5114755;28;19959;-77
2023/01/28 04:30:00;;;;;;;;;;;;;;;;;;5114340;28;19907;-77
2023/01/28 04:32:26;;;;;;;;;;;;;;;;;;5114645;28;19908;-77
2023/01/28 04:34:52;;;;;;;;;;;;;;;;;;5114908;28;19912;-77
2023/01/28 04:37:18;;;;;;;;;;;;;;;;;;5114456;28;19907;-77
2023/01/28 04:39:44;;;;;;;;;;;;;;;;;;5115375;28;19914;-77
2023/01/28 04:42:10;;;;;;;;;;;;;;;;;;5115283;28;19955;-78
2023/01/28 04:44:36;;;;;;;;;;;;;;;;;;5114390;28;19920;-77
2023/01/28 04:47:02;;;;;;;;;;;;;;;;;;5114886;28;19923;-77
2023/01/28 04:49:28;;;;;;;;;;;;;;;;;;5114627;28;19951;-76
2023/01/28 04:51:54;;;;;;;;;;;;;;;;;;5114071;28;19908;-76
2023/01/28 04:54:20;;;;;;;;;;;;;;;;;;5114871;28;19912;-76
2023/01/28 04:56:46;;;;;;;;;;;;;;;;;;5114218;28;20356;-76
2023/01/28 04:59:12;;;;;;;;;;;;;;;;;;5112498;28;19911;-76
2023/01/28 05:01:38;;;;;;;;;;;;;;;;;;5114255;28;19908;-77
2023/01/28 05:04:04;;;;;;;;;;;;;;;;;;5114426;28;19907;-77
2023/01/28 05:06:30;;;;;;;;;;;;;;;;;;5114114;28;19930;-77
2023/01/28 05:08:56;;;;;;;;;;;;;;;;;;5114391;28;19916;-77
2023/01/28 05:11:22;;;;;;;;;;;;;;;;;;5114252;28;20340;-77
2023/01/28 05:13:48;;;;;;;;;;;;;;;;;;5113089;28;19915;-75
2023/01/28 05:16:14;;;;;;;;;;;;;;;;;;5114116;28;19915;-76
2023/01/28 05:18:40;;;;;;;;;;;;;;;;;;5113700;28;19970;-76
2023/01/28 05:21:06;;;;;;;;;;;;;;;;;;5116161;28;19961;-76
2023/01/28 05:23:32;;;;;;;;;;;;;;;;;;5118133;28;19911;-76
2023/01/28 05:25:58;;;;;;;;;;;;;;;;;;5117582;28;19908;-77
2023/01/28 05:28:24;;;;;;;;;;;;;;;;;;5117922;28;20019;-76
2023/01/28 05:30:50;;;;;;;;;;;;;;;;;;5118215;28;19918;-76
2023/01/28 05:33:16;;;;;;;;;;;;;;;;;;5117411;28;19908;-75
2023/01/28 05:35:42;;;;;;;;;;;;;;;;;;5116374;28;20236;-76
2023/01/28 05:38:08;;;;;;;;;;;;;;;;;;5117737;28;19908;-75
2023/01/28 05:40:34;;;;;;;;;;;;;;;;;;5117242;28;19931;-76
2023/01/28 05:43:00;;;;;;;;;;;;;;;;;;5117515;28;19911;-77
2023/01/28 05:45:26;;;;;;;;;;;;;;;;;;5117675;28;20010;-76
2023/01/28 05:47:52;;;;;;;;;;;;;;;;;;5117097;28;19923;-76
2023/01/28 05:50:18;;;;;;;;;;;;;;;;;;5117587;28;19908;-76
2023/01/28 05:52:44;;;;;;;;;;;;;;;;;;5117401;27;19908;-76
2023/01/28 05:55:09;;;;;;;;;;;;;;;;;;5117020;28;19907;-77
2023/01/28 05:57:35;;;;;;;;;;;;;;;;;;5117433;28;20256;-76
2023/01/28 06:00:01;;;;;;;;;;;;;;;;;;5117693;28;19950;-77
2023/01/28 06:02:27;;;;;;;;;;;;;;;;;;5116901;28;19908;-77
2023/01/28 06:04:53;;;;;;;;;;;;;;;;;;5117216;28;19952;-77
2023/01/28 06:07:19;;;;;;;;;;;;;;;;;;5117627;28;19907;-77
2023/01/28 06:09:46;;;;;;;;;;;;;;;;;;5117621;27;19989;-78
2023/01/28 06:12:12;;;;;;;;;;;;;;;;;;5116228;28;20356;-78
2023/01/28 06:14:38;;;;;;;;;;;;;;;;;;5117237;28;19908;-77
2023/01/28 06:17:04;;;;;;;;;;;;;;;;;;5116075;28;19915;-77
2023/01/28 06:19:29;;;;;;;;;;;;;;;;;;5117483;28;19907;-77
2023/01/28 06:21:55;;;;;;;;;;;;;;;;;;5116901;28;19907;-78
2023/01/28 06:24:21;;;;;;;;;;;;;;;;;;5117659;28;19961;-77
2023/01/28 06:26:47;;;;;;;;;;;;;;;;;;5117319;28;19915;-78
2023/01/28 06:29:13;;;;;;;;;;;;;;;;;;5116717;28;19962;-78
2023/01/28 06:31:39;;;;;;;;;;;;;;;;;;5115376;28;20295;-78
2023/01/28 06:34:05;;;;;;;;;;;;;;;;;;5115277;28;20423;-77
2023/01/28 06:36:32;;;;;;;;;;;;;;;;;;5114879;28;19959;-77
2023/01/28 06:38:57;;;;;;;;;;;;;;;;;;5115304;28;20430;-77
2023/01/28 06:41:23;;;;;;;;;;;;;;;;;;5117130;28;19908;-78
2023/01/28 06:43:49;;;;;;;;;;;;;;;;;;5114806;28;19920;-77
2023/01/28 06:46:15;;;;;;;;;;;;;;;;;;5116834;28;20377;-77
2023/01/28 06:48:41;;;;;;;;;;;;;;;;;;5116654;28;19916;-75
2023/01/28 06:51:07;;;;;;;;;;;;;;;;;;5115883;28;19915;-76
2023/01/28 06:53:33;;;;;;;;;;;;;;;;;;5115128;28;19998;-76
2023/01/28 06:55:59;;;;;;;;;;;;;;;;;;5115121;28;19961;-77
2023/01/28 06:58:25;;;;;;;;;;;;;;;;;;5114645;28;19908;-77
2023/01/28 07:00:51;;;;;;;;;;;;;;;;;;5116509;28;20000;-78
2023/01/28 07:03:17;;;;;;;;;;;;;;;;;;5116171;28;20392;-77
2023/01/28 07:05:43;;;;;;;;;;;;;;;;;;5115925;28;19908;-78
2023/01/28 07:08:09;;;;;;;;;;;;;;;;;;5115944;28;20421;-78
2023/01/28 07:10:35;;;;;;;;;;;;;;;;;;5116123;28;19908;-77
2023/01/28 07:13:01;;;;;;;;;;;;;;;;;;5115890;28;19914;-78
2023/01/28 07:15:27;;;;;;;;;;;;;;;;;;5114782;28;20276;-77
2023/01/28 07:17:53;;;;;;;;;;;;;;;;;;5115635;28;19950;-78
2023/01/28 07:20:19;;;;;;;;;;;;;;;;;;5116035;27;19908;-77
2023/01/28 07:22:45;;;;;;;;;;;;;;;;;;5114892;28;19908;-77
2023/01/28 07:25:10;;;;;;;;;;;;;;;;;;5115715;28;20041;-78
2023/01/28 07:27:36;;;;;;;;;;;;;;;;;;5115955;28;19912;-77
2023/01/28 07:30:02;;;;;;;;;;;;;;;;;;5114429;28;19916;-77
2023/01/28 07:32:28;;;;;;;;;;;;;;;;;;5115516;28;19908;-77
2023/01/28 07:34:54;;;;;;;;;;;;;;;;;;5114537;28;19908;-77
2023/01/28 07:37:20;;;;;;;;;;;;;;;;;;5115858;28;20390;-78
2023/01/28 07:39:46;;;;;;;;;;;;;;;;;;5115722;28;19907;-77
2023/01/28 07:42:12;;;;;;;;;;;;;;;;;;5115796;28;20020;-78
2023/01/28 07:44:38;;;;;;;;;;;;;;;;;;5114641;28;19919;-76
2023/01/28 07:47:04;;;;;;;;;;;;;;;;;;5115028;28;19957;-78
2023/01/28 07:49:30;;;;;;;;;;;;;;;;;;5115339;28;19959;-76
2023/01/28 07:51:56;;;;;;;;;;;;;;;;;;5113833;28;19914;-77
2023/01/28 07:54:22;;;;;;;;;;;;;;;;;;5114739;28;19943;-76
2023/01/28 07:56:48;;;;;;;;;;;;;;;;;;5115317;28;19915;-76
2023/01/28 07:59:14;;;;;;;;;;;;;;;;;;5115440;28;19908;-77
2023/01/28 08:01:39;;;;;;;;;;;;;;;;;;5114949;28;19940;-76
2023/01/28 08:04:05;;;;;;;;;;;;;;;;;;5115213;28;19915;-76
2023/01/28 08:06:36;;;;;;;;;;;;;;;;;;5115084;28;19916;-75
2023/01/28 08:09:04;;;;;;;;;;;;;;;;;;5113148;28;19926;-76
2023/01/28 08:11:30;;;;;;;;;;;;;;;;;;5114936;28;19908;-76
2023/01/28 08:13:56;;;;;;;;;;;;;;;;;;5114760;28;19914;-76
2023/01/28 08:16:21;;;;;;;;;;;;;;;;;;5114384;28;19912;-76
2023/01/28 08:18:47;;;;;;;;;;;;;;;;;;5114914;28;19908;-76
2023/01/28 08:21:13;;;;;;;;;;;;;;;;;;5114323;28;19932;-76
2023/01/28 08:23:39;;;;;;;;;;;;;;;;;;5114756;27;19908;-76
2023/01/28 08:26:05;;;;;;;;;;;;;;;;;;5113387;28;19965;-77
2023/01/28 08:28:31;;;;;;;;;;;;;;;;;;5114326;28;19924;-77
2023/01/28 08:30:57;;;;;;;;;;;;;;;;;;5114715;28;20395;-77
2023/01/28 08:33:23;;;;;;;;;;;;;;;;;;5113182;28;19912;-77
2023/01/28 08:35:49;;;;;;;;;;;;;;;;;;5114305;28;19922;-77
2023/01/28 08:38:16;;;;;;;;;;;;;;;;;;5114484;28;20014;-78
2023/01/28 08:40:42;;;;;;;;;;;;;;;;;;5114537;28;20320;-77
2023/01/28 08:43:08;;;;;;;;;;;;;;;;;;5114350;28;19962;-78
2023/01/28 08:45:34;;;;;;;;;;;;;;;;;;5115378;28;20295;-77
2023/01/28 08:48:00;;;;;;;;;;;;;;;;;;5114414;28;20373;-77
2023/01/28 08:50:26;;;;;;;;;;;;;;;;;;5114160;28;19908;-77
2023/01/28 08:52:52;;;;;;;;;;;;;;;;;;5114794;28;19911;-77
2023/01/28 08:55:18;;;;;;;;;;;;;;;;;;5115351;28;19946;-78
2023/01/28 08:57:44;;;;;;;;;;;;;;;;;;5119046;28;19908;-78
2023/01/28 09:00:10;;;;;;;;;;;;;;;;;;5127165;27;19948;-77
2023/01/28 09:02:36;;;;;;;;;;;;;;;;;;5141993;28;19919;-78
2023/01/28 09:05:02;;;;;;;;;;;;;;;;;;5140245;28;19908;-76
2023/01/28 09:07:28;;;;;;;;;;;;;;;;;;5131119;28;19930;-77
2023/01/28 09:09:54;;;;;;;;;;;;;;;;;;5121160;28;19953;-77
2023/01/28 09:12:20;;;;;;;;;;;;;;;;;;5121456;28;19915;-77
2023/01/28 09:14:46;;;;;;;;;;;;;;;;;;5120941;28;19908;-77
2023/01/28 09:17:12;;;;;;;;;;;;;;;;;;5118432;28;20287;-78
2023/01/28 09:19:38;;;;;;;;;;;;;;;;;;5116917;28;19911;-78
2023/01/28 09:22:04;;;;;;;;;;;;;;;;;;5117033;28;19908;-78
2023/01/28 09:24:30;;;;;;;;;;;;;;;;;;5117857;28;19972;-77
2023/01/28 09:26:55;;;;;;;;;;;;;;;;;;5118229;28;19908;-78
2023/01/28 09:29:21;;;;;;;;;;;;;;;;;;5117197;28;19927;-78
2023/01/28 09:31:47;;;;;;;;;;;;;;;;;;5117850;28;20002;-77
2023/01/28 09:34:13;;;;;;;;;;;;;;;;;;5118061;28;19915;-78
2023/01/28 09:36:39;;;;;;;;;;;;;;;;;;5118198;28;19908;-77
2023/01/28 09:39:05;;;;;;;;;;;;;;;;;;5117537;28;19908;-78
2023/01/28 09:41:31;;;;;;;;;;;;;;;;;;5118038;28;20299;-77
2023/01/28 09:43:58;;;;;;;;;;;;;;;;;;5117977;28;19973;-78
2023/01/28 09:46:24;;;;;;;;;;;;;;;;;;5118068;28;19933;-78
2023/01/28 09:48:50;;;;;;;;;;;;;;;;;;5117754;28;20014;-78
2023/01/28 09:51:16;;;;;;;;;;;;;;;;;;5118014;27;19915;-78
2023/01/28 09:53:42;;;;;;;;;;;;;;;;;;5117263;28;19912;-78
2023/01/28 09:56:08;;;;;;;;;;;;;;;;;;5117700;28;19914;-78
2023/01/28 09:58:33;;;;;;;;;;;;;;;;;;5117872;27;19919;-78
2023/01/28 10:01:01;;;;;;;;;;;;;;;;;;5117765;28;19987;-78
2023/01/28 10:03:27;;;;;;;;;;;;;;;;;;5117987;28;19981;-77
2023/01/28 10:05:53;;;;;;;;;;;;;;;;;;5116813;28;19908;-77
2023/01/28 10:08:19;;;;;;;;;;;;;;;;;;5116827;28;19972;-78
2023/01/28 10:10:45;;;;;;;;;;;;;;;;;;5116022;28;19908;-78
2023/01/28 10:13:11;;;;;;;;;;;;;;;;;;5117449;28;19908;-78
2023/01/28 10:15:37;;;;;;;;;;;;;;;;;;5115665;28;19908;-78
2023/01/28 10:18:02;;;;;;;;;;;;;;;;;;5117214;28;19917;-78
2023/01/28 10:20:29;;;;;;;;;;;;;;;;;;5117349;28;19915;-77
2023/01/28 10:22:55;;;;;;;;;;;;;;;;;;5115377;28;20002;-78
2023/01/28 10:25:21;;;;;;;;;;;;;;;;;;5116891;28;19992;-77
2023/01/28 10:27:47;;;;;;;;;;;;;;;;;;5115340;28;19919;-77
2023/01/28 10:30:13;;;;;;;;;;;;;;;;;;5117196;28;20425;-78
2023/01/28 10:32:40;;;;;;;;;;;;;;;;;;5115754;28;20295;-78
2023/01/28 10:35:06;;;;;;;;;;;;;;;;;;5115224;28;19908;-78
2023/01/28 10:37:32;;;;;;;;;;;;;;;;;;5116979;28;19934;-77
2023/01/28 10:39:58;;;;;;;;;;;;;;;;;;5116803;28;19908;-79
2023/01/28 10:42:24;;;;;;;;;;;;;;;;;;5116337;28;19915;-78
2023/01/28 10:44:50;;;;;;;;;;;;;;;;;;5117219;28;19951;-78
2023/01/28 10:47:16;;;;;;;;;;;;;;;;;;5116835;28;19907;-78
2023/01/28 10:49:42;;;;;;;;;;;;;;;;;;5116589;28;19924;-78
2023/01/28 10:52:08;;;;;;;;;;;;;;;;;;5116668;28;19958;-79
2023/01/28 10:54:34;;;;;;;;;;;;;;;;;;5116537;27;19994;-78
2023/01/28 10:57:00;;;;;;;;;;;;;;;;;;5116268;28;19908;-78
2023/01/28 10:59:26;;;;;;;;;;;;;;;;;;5116188;28;19908;-78
2023/01/28 11:01:52;;;;;;;;;;;;;;;;;;5116815;28;20260;-78
2023/01/28 11:04:18;;;;;;;;;;;;;;;;;;5116220;28;19907;-76
2023/01/28 11:06:44;;;;;;;;;;;;;;;;;;5114893;28;19998;-77
2023/01/28 11:09:10;;;;;;;;;;;;;;;;;;5116197;28;20019;-77
2023/01/28 11:11:36;;;;;;;;;;;;;;;;;;5116012;28;19907;-77
2023/01/28 11:14:02;;;;;;;;;;;;;;;;;;5116117;28;19911;-77
2023/01/28 11:16:28;;;;;;;;;;;;;;;;;;5115930;28;19999;-77
2023/01/28 11:18:54;;;;;;;;;;;;;;;;;;5113243;28;19962;-77
2023/01/28 11:21:20;;;;;;;;;;;;;;;;;;5115690;28;20002;-77
2023/01/28 11:23:46;;;;;;;;;;;;;;;;;;5115939;28;20405;-77
2023/01/28 11:26:12;;;;;;;;;;;;;;;;;;5115513;28;19912;-78
2023/01/28 11:28:38;;;;;;;;;;;;;;;;;;5115858;28;19959;-77
2023/01/28 11:31:04;;;;;;;;;;;;;;;;;;5115511;28;19908;-78
2023/01/28 11:33:30;;;;;;;;;;;;;;;;;;5115566;28;19944;-77
2023/01/28 11:35:56;;;;;;;;;;;;;;;;;;5115674;28;20425;-77
2023/01/28 11:38:22;;;;;;;;;;;;;;;;;;5115946;28;20307;-77
2023/01/28 11:40:48;;;;;;;;;;;;;;;;;;5115767;28;20285;-77
2023/01/28 11:43:14;;;;;;;;;;;;;;;;;;5116053;28;20376;-77
2023/01/28 11:45:40;;;;;;;;;;;;;;;;;;5115096;28;20417;-76
2023/01/28 11:48:06;;;;;;;;;;;;;;;;;;5114085;28;19923;-78
2023/01/28 11:50:32;;;;;;;;;;;;;;;;;;5114080;28;19920;-79
2023/01/28 11:52:57;;;;;;;;;;;;;;;;;;5113470;28;19953;-76
2023/01/28 11:55:23;;;;;;;;;;;;;;;;;;5113924;28;19911;-76
2023/01/28 11:57:49;;;;;;;;;;;;;;;;;;5115206;28;19908;-77
2023/01/28 12:00:16;;;;;;;;;;;;;;;;;;5113605;28;19908;-77
2023/01/28 12:02:43;;;;;;;;;;;;;;;;;;5115274;28;19912;-77
2023/01/28 12:05:09;;;;;;;;;;;;;;;;;;5115360;28;20002;-77
2023/01/28 12:07:35;;;;;;;;;;;;;;;;;;5114675;28;19951;-77
2023/01/28 12:10:01;;;;;;;;;;;;;;;;;;5115072;28;20006;-77
2023/01/28 12:12:27;;;;;;;;;;;;;;;;;;5115010;28;19914;-77
2023/01/28 12:14:53;;;;;;;;;;;;;;;;;;5113340;28;19930;-77
2023/01/28 12:17:19;;;;;;;;;;;;;;;;;;5113529;28;19912;-77
2023/01/28 12:19:45;;;;;;;;;;;;;;;;;;5114619;28;19908;-77
2023/01/28 12:22:11;;;;;;;;;;;;;;;;;;5114335;28;19969;-77
2023/01/28 12:24:36;;;;;;;;;;;;;;;;;;5114710;28;20360;-77
2023/01/28 12:27:02;;;;;;;;;;;;;;;;;;5114623;28;20293;-78
2023/01/28 12:29:28;;;;;;;;;;;;;;;;;;5112712;28;20288;-78
2023/01/28 12:31:54;;;;;;;;;;;;;;;;;;5115012;28;19994;-78
2023/01/28 12:34:20;;;;;;;;;;;;;;;;;;5114298;28;19958;-77
2023/01/28 12:36:46;;;;;;;;;;;;;;;;;;5114799;28;19991;-78
2023/01/28 12:39:12;;;;;;;;;;;;;;;;;;5114551;28;20003;-78
2023/01/28 12:41:38;;;;;;;;;;;;;;;;;;5113201;28;19912;-78
2023/01/28 12:44:07;;;;;;;;;;;;;;;;;;5114424;28;20377;-78
2023/01/28 12:46:33;;;;;;;;;;;;;;;;;;5114649;28;19908;-77
2023/01/28 12:48:59;;;;;;;;;;;;;;;;;;5112700;28;19939;-77
2023/01/28 12:51:25;;;;;;;;;;;;;;;;;;5114427;28;20018;-77
2023/01/28 12:53:51;;;;;;;;;;;;;;;;;;5113318;28;19963;-77
2023/01/28 12:56:17;;;;;;;;;;;;;;;;;;5112806;28;19908;-78
2023/01/28 13:01:01;;;;;;;;;;;;;;;;;;5112054;27;19916;-78
2023/01/28 13:03:27;;;;;;;;;;;;;;;;;;5111501;28;20011;-78
2023/01/28 13:05:53;;;;;;;;;;;;;;;;;;5112324;28;19914;-78
2023/01/28 13:08:19;;;;;;;;;;;;;;;;;;5111904;28;19915;-77
2023/01/28 13:10:45;;;;;;;;;;;;;;;;;;5111596;28;19930;-78
2023/01/28 13:13:11;;;;;;;;;;;;;;;;;;5112116;28;19912;-79
2023/01/28 13:15:37;;;;;;;;;;;;;;;;;;5111783;28;19933;-78
2023/01/28 13:18:03;;;;;;;;;;;;;;;;;;5111543;28;19966;-78
2023/01/28 13:22:06;;;;;;;;;;;;;;;;;;5092018;27;19912;-77
2023/01/28 13:24:32;;;;;;;;;;;;;;;;;;5091387;28;19999;-77
2023/01/28 13:26:58;;;;;;;;;;;;;;;;;;5091826;28;20296;-76
2023/01/28 13:33:08;;;;;;;;;;;;;;;;;;5112507;27;19916;-79
2023/01/28 13:35:34;;;;;;;;;;;;;;;;;;5112728;28;20265;-78
2023/01/28 13:38:00;;;;;;;;;;;;;;;;;;5110691;28;19915;-79
2023/01/28 13:42:11;;;;;;;;;;;;;;;;;;5112422;27;19916;-79
2023/01/28 13:44:37;;;;;;;;;;;;;;;;;;5111637;28;20006;-78
2023/01/28 13:47:03;;;;;;;;;;;;;;;;;;5111984;28;19908;-78
2023/01/28 13:49:29;;;;;;;;;;;;;;;;;;5110824;28;19908;-78
2023/01/28 13:51:55;;;;;;;;;;;;;;;;;;5111645;28;19908;-78
2023/01/28 13:54:22;;;;;;;;;;;;;;;;;;5110783;28;19912;-78
2023/01/28 13:56:48;;;;;;;;;;;;;;;;;;5112044;28;19954;-79
2023/01/28 13:59:14;;;;;;;;;;;;;;;;;;5111530;28;20272;-79
2023/01/28 14:01:40;;;;;;;;;;;;;;;;;;5112138;28;20424;-78
2023/01/28 14:04:06;;;;;;;;;;;;;;;;;;5111752;28;20391;-78
2023/01/28 14:06:32;;;;;;;;;;;;;;;;;;5111515;28;20364;-78
2023/01/28 14:08:58;;;;;;;;;;;;;;;;;;5111693;28;20382;-78
2023/01/28 14:11:24;;;;;;;;;;;;;;;;;;5110449;28;20433;-77
2023/01/28 14:13:50;;;;;;;;;;;;;;;;;;5111379;28;20003;-77
2023/01/28 14:16:16;;;;;;;;;;;;;;;;;;5110464;28;19961;-78
2023/01/28 14:18:42;;;;;;;;;;;;;;;;;;5111503;28;19943;-77
2023/01/28 14:22:41;;;;;;;;;;;;;;;;;;5112836;27;20356;-78
2023/01/28 14:25:07;;;;;;;;;;;;;;;;;;5112192;28;20003;-78
2023/01/28 14:28:07;;;;;;;;;;;;;;;;;;5111716;27;19922;-78
2023/01/28 14:30:33;;;;;;;;;;;;;;;;;;5111926;28;19995;-78
2023/01/28 14:32:59;;;;;;;;;;;;;;;;;;5112380;28;19908;-78
2023/01/28 14:35:25;;;;;;;;;;;;;;;;;;5111553;28;19909;-77
2023/01/28 14:37:51;;;;;;;;;;;;;;;;;;5111787;28;20322;-78
2023/01/28 14:40:17;;;;;;;;;;;;;;;;;;5111735;28;20287;-78
2023/01/28 14:42:43;;;;;;;;;;;;;;;;;;5109866;28;20348;-78
2023/01/28 14:45:09;;;;;;;;;;;;;;;;;;5111432;28;20391;-78
2023/01/28 14:47:35;;;;;;;;;;;;;;;;;;5110385;28;20081;-77
2023/01/28 14:50:01;;;;;;;;;;;;;;;;;;5115205;28;19915;-77
2023/01/28 14:52:28;;;;;;;;;;;;;;;;;;5135593;28;19915;-77
2023/01/28 14:54:54;;;;;;;;;;;;;;;;;;5112439;28;19908;-79
2023/01/28 14:57:19;;;;;;;;;;;;;;;;;;5112681;28;20306;-78
2023/01/28 14:59:45;;;;;;;;;;;;;;;;;;5110592;28;19915;-78
2023/01/28 15:02:11;;;;;;;;;;;;;;;;;;5111345;28;19908;-78
2023/01/28 15:04:37;;;;;;;;;;;;;;;;;;5111420;28;20367;-77
2023/01/28 15:07:03;;;;;;;;;;;;;;;;;;5111218;28;19916;-77
2023/01/28 15:09:29;;;;;;;;;;;;;;;;;;5110622;28;19908;-77
2023/01/28 15:11:55;;;;;;;;;;;;;;;;;;5109676;28;20006;-78
2023/01/28 15:14:21;;;;;;;;;;;;;;;;;;5111357;28;19912;-77
2023/01/28 15:16:47;;;;;;;;;;;;;;;;;;5110870;28;19912;-78
2023/01/28 15:19:13;;;;;;;;;;;;;;;;;;5111270;28;19915;-78
2023/01/28 15:21:39;;;;;;;;;;;;;;;;;;5110948;28;20299;-77
2023/01/28 15:24:05;;;;;;;;;;;;;;;;;;5110630;28;20470;-77
2023/01/28 15:26:31;;;;;;;;;;;;;;;;;;5110634;28;20348;-76
2023/01/28 15:28:57;;;;;;;;;;;;;;;;;;5110674;28;19959;-77
2023/01/28 15:31:23;;;;;;;;;;;;;;;;;;5110319;28;19908;-77
2023/01/28 15:33:49;;;;;;;;;;;;;;;;;;5110795;28;19915;-78
2023/01/28 15:36:14;;;;;;;;;;;;;;;;;;5110899;28;20010;-78
2023/01/28 15:38:40;;;;;;;;;;;;;;;;;;5099862;28;19923;-77
2023/01/28 15:41:06;;;;;;;;;;;;;;;;;;5097142;28;19908;-78
2023/01/28 15:43:32;;;;;;;;;;;;;;;;;;5097140;28;19999;-77
2023/01/28 15:45:58;;;;;;;;;;;;;;;;;;5096930;28;19916;-78
2023/01/28 15:48:24;;;;;;;;;;;;;;;;;;5097179;28;19913;-77
2023/01/28 15:50:50;;;;;;;;;;;;;;;;;;5097137;28;19916;-77
2023/01/28 15:53:16;;;;;;;;;;;;;;;;;;5096849;28;19991;-76
2023/01/28 15:55:42;;;;;;;;;;;;;;;;;;5097153;28;19908;-78
2023/01/28 15:58:08;;;;;;;;;;;;;;;;;;5099018;28;19908;-78
2023/01/28 16:00:34;;;;;;;;;;;;;;;;;;5095135;28;20004;-77
2023/01/28 16:03:00;;;;;;;;;;;;;;;;;;5095523;28;19908;-78
2023/01/28 16:05:26;;;;;;;;;;;;;;;;;;5096495;28;19908;-77
2023/01/28 16:07:52;;;;;;;;;;;;;;;;;;5095296;28;19923;-78
2023/01/28 16:10:18;;;;;;;;;;;;;;;;;;5096893;28;19930;-78
2023/01/28 16:12:44;;;;;;;;;;;;;;;;;;5096471;28;20388;-77
2023/01/28 16:15:10;;;;;;;;;;;;;;;;;;5096821;28;20392;-77
2023/01/28 16:17:35;;;;;;;;;;;;;;;;;;5096557;28;19916;-77
2023/01/28 16:20:01;;;;;;;;;;;;;;;;;;5094659;28;19915;-77
2023/01/28 16:22:27;;;;;;;;;;;;;;;;;;5096348;28;19916;-77
2023/01/28 16:24:53;;;;;;;;;;;;;;;;;;5096369;28;19908;-78
2023/01/28 16:27:19;;;;;;;;;;;;;;;;;;5094339;28;19927;-78
2023/01/28 16:29:45;;;;;;;;;;;;;;;;;;5096201;28;19978;-78
2023/01/28 16:32:11;;;;;;;;;;;;;;;;;;5096246;28;20312;-78
2023/01/28 16:34:41;;;;;;;;;;;;;;;;;;5095952;28;19935;-78
2023/01/28 16:37:06;;;;;;;;;;;;;;;;;;5096138;28;19947;-78
2023/01/28 16:39:32;;;;;;;;;;;;;;;;;;5096049;28;19931;-78
2023/01/28 16:41:58;;;;;;;;;;;;;;;;;;5094218;28;19912;-78
2023/01/28 16:44:24;;;;;;;;;;;;;;;;;;5096243;28;19908;-78
2023/01/28 16:46:50;;;;;;;;;;;;;;;;;;5095891;28;19920;-79
2023/01/28 16:49:16;;;;;;;;;;;;;;;;;;5094992;28;19908;-77
2023/01/28 16:51:42;;;;;;;;;;;;;;;;;;5095264;28;19953;-77
2023/01/28 16:54:08;;;;;;;;;;;;;;;;;;5095482;28;19915;-77
2023/01/28 16:56:34;;;;;;;;;;;;;;;;;;5095266;28;19908;-77
2023/01/28 16:59:00;;;;;;;;;;;;;;;;;;5095699;28;19971;-78
2023/01/28 17:01:26;;;;;;;;;;;;;;;;;;5095385;28;19915;-77
2023/01/28 17:03:52;;;;;;;;;;;;;;;;;;5095003;28;19909;-78
2023/01/28 17:06:18;;;;;;;;;;;;;;;;;;5095562;28;20394;-76
2023/01/28 17:08:44;;;;;;;;;;;;;;;;;;5095096;28;20375;-77
2023/01/28 17:11:10;;;;;;;;;;;;;;;;;;5095232;28;19912;-78
2023/01/28 17:13:36;;;;;;;;;;;;;;;;;;5095161;28;20253;-78
2023/01/28 17:16:02;;;;;;;;;;;;;;;;;;5094836;28;19908;-78
2023/01/28 17:18:28;;;;;;;;;;;;;;;;;;5093836;28;19909;-78
2023/01/28 17:20:54;;;;;;;;;;;;;;;;;;5095124;28;19999;-78